Etusivu
METAR-TAF:

METAR-TAF

Lentoasemat :

Karlstad, Ruotsi

Leveyspiiri: 59-26-41N, Pituuspiiri: 013-20-15E, korkeus merenpinnasta: 107 m

Tämänhetkinen sää

Tämä raportti tehtiin 29 minuuttia sitten, kello 22.50 UTC
Tuuli 3 kn pohjoisesta/koillisesta
Lämpötila 11°C
Kosteus 94%
Ilmanpaine 1010 hPa
Näkyvyys 10 km tai enemmän

METAR: ESOK 222250Z AUTO 03003KT 9999 OVC069/// 11/10 Q1010

Aika: 01:19 (23:19 UTC)


TAF: puuttuu

Säähavainnot ja -ennusteet yli 4000 lentoasemalta (METAR- ja TAF-raportit).

Käytössä olevat sääasemat on merkitty karttaan keltaisilla ja punaisilla pisteillä.

Aseta hiiri pisteen päälle nähdäksesi sääaseman nimen.

Klikkaa sitten nähdäksesi säähavainnot ja -ennusteet.

Kartan vaihtaminen: klikkaa mustalla rastilla varustettuja vihreitä pisteitä, niin voit zoomata sisään; viivalla varustettua vihreää pistettä, niin voit zoomata ulos tai vihreitä nuolia, niin pääset viereisille kartoille.


METAR-TAF: